Martin, TN (38237)

2:21 AM CDT on August 31, 2015 (GMT -0500)
City of Martin Fire Department | | Change Station
CLOSE
Current Station
Personal Weather Station
Location: Martin, TN
Elevation: 413 ft
Nearby Weather Stations

Elev 413 ft 36.34 °N, 88.85 °W | Updated 12 minutes ago

Clear
Clear
69.3 °F
Feels Like 69.3 °F
N
1.1
Wind Variable Wind from ESE

Today
High -- | Low -- °F
--% Chance of Precip.
Yesterday
High -- | Low -- °F
Precip. -- in
6:25 AM 7:25 PM
Waning Gibbous, 96% visible
Pressure 30.06 in
Visibility 7.0 miles
Clouds Clear
Dew Point 67 °F
Humidity 93%
Rainfall 0.00 in
Snow Depth Not available.
UV 0 out of 12
Pollen 10.10 out of 12
Air Quality Not available.
Flu Activity Not available.
METAR KM25 310655Z AUTO 00000KT 7SM CLR 20/20 A3006 RMK AO2
Pressure 30.06 in
Visibility 7.0 miles
Clouds Clear
Dew Point 67 °F
Humidity 93%
Rainfall 0.00 in
Snow Depth Not available.
UV 0 out of 12
Pollen 10.10 out of 12
Air Quality Not available.
Flu Activity Not available.
METAR KM25 310655Z AUTO 00000KT 7SM CLR 20/20 A3006 RMK AO2

10-Day Weather Forecast

×

Almanac

Astronomy

Aug. 31, 2015 Rise Set
Actual Time
Civil Twilight
Nautical Twilight
Astronomical Twilight
Moon
Length of Visible Light
Length of Day
Tomorrow will be .
, % of the Moon is Illuminated

Today's Extremes

State Highs State Lows

Community

WunderPhotos

Upload Photos

1,851,220 photos uploaded!

WunderBlogs® & News

Nearby

Air Quality

  Air Quality AQ Index Pollutant
Not available.

Snow Depth

Station Depth Elevation

Earthquake Activity

City Distance Mag. Time & Date
Minimum magnitude displayed is 2.5.

Coastal Water Temperatures

Place Temperature

Stations

Nearby Weather Stations

Station Location Temp. Windchill Dew Point Humidity Wind Precip. Elev Updated Type